Time;durP1;ratioP1;P1;durP2;ratioP2;P2;SDS_P1;SDS_P2;PMS_P1;PMS_P2;Temp;Humidity;BMP_temperature;BMP_pressure;BME280_temperature;BME280_humidity;BME280_pressure;Samples;Min_cycle;Max_cycle;Signal;HPM_P1;HPM_P2
2023/06/21 00:01:49;;;;;;;14.77;14.17;;;18.10;99.90;;;;;;5046403;28;20514;-66
2023/06/21 00:04:16;;;;;;;14.80;14.20;;;18.10;99.90;;;;;;5042980;28;20523;-67
2023/06/21 00:06:49;;;;;;;14.90;14.30;;;18.10;99.90;;;;;;5038699;28;20468;-66
2023/06/21 00:09:17;;;;;;;15.90;15.20;;;18.10;99.90;;;;;;5038398;28;20465;-66
2023/06/21 00:11:44;;;;;;;14.50;13.90;;;18.20;99.90;;;;;;5036400;28;20471;-65
2023/06/21 00:14:13;;;;;;;15.10;14.50;;;18.10;99.90;;;;;;5041700;28;20460;-65
2023/06/21 00:16:40;;;;;;;14.70;14.10;;;18.10;99.90;;;;;;5041763;28;20488;-65
2023/06/21 00:19:07;;;;;;;14.90;14.30;;;18.10;99.90;;;;;;5048733;28;20869;-66
2023/06/21 00:21:35;;;;;;;15.33;14.40;;;18.10;99.90;;;;;;5044794;28;20449;-65
2023/06/21 00:24:02;;;;;;;15.47;14.77;;;18.10;99.90;;;;;;5042813;28;20823;-66
2023/06/21 00:26:29;;;;;;;15.40;14.70;;;18.10;99.90;;;;;;5044232;28;20468;-66
2023/06/21 00:28:56;;;;;;;15.43;14.73;;;18.00;99.90;;;;;;5031830;28;20464;-66
2023/06/21 00:31:25;;;;;;;15.80;15.10;;;18.00;99.90;;;;;;5048211;28;20459;-66
2023/06/21 00:33:51;;;;;;;16.03;15.33;;;18.00;99.90;;;;;;5038419;28;20465;-67
2023/06/21 00:36:18;;;;;;;16.30;15.60;;;18.00;99.90;;;;;;5047520;28;20464;-67
2023/06/21 00:38:46;;;;;;;16.73;15.93;;;17.90;99.90;;;;;;5043173;28;20495;-66
2023/06/21 00:41:13;;;;;;;16.20;15.50;;;17.90;99.90;;;;;;5037472;28;20526;-66
2023/06/21 00:43:39;;;;;;;16.67;15.87;;;17.90;99.90;;;;;;5047611;28;20472;-64
2023/06/21 00:46:06;;;;;;;17.23;16.43;;;17.80;99.90;;;;;;5041058;28;20461;-65
2023/06/21 00:48:34;;;;;;;16.73;15.93;;;17.80;99.90;;;;;;5044477;28;20468;-66
2023/06/21 00:51:01;;;;;;;16.60;15.80;;;17.90;99.90;;;;;;5039352;28;20456;-66
2023/06/21 00:53:30;;;;;;;16.63;15.83;;;17.90;99.90;;;;;;5044961;28;20461;-66
2023/06/21 00:55:57;;;;;;;16.73;15.93;;;17.90;99.90;;;;;;5033794;28;20811;-66
2023/06/21 00:58:24;;;;;;;16.80;16.00;;;17.90;99.90;;;;;;5042603;28;20463;-66
2023/06/21 01:00:51;;;;;;;15.97;15.27;;;17.90;99.90;;;;;;5043344;28;20467;-66
2023/06/21 01:03:18;;;;;;;15.93;15.23;;;17.90;99.90;;;;;;5038150;28;20460;-67
2023/06/21 01:05:53;;;;;;;16.13;15.43;;;17.90;99.90;;;;;;5045314;28;20456;-66
2023/06/21 01:08:31;;;;;;;16.00;15.30;;;17.90;99.90;;;;;;5040002;28;20470;-66
2023/06/21 01:11:06;;;;;;;18.70;17.63;;;18.00;99.90;;;;;;5041191;28;20866;-66
2023/06/21 01:13:42;;;;;;;16.47;15.77;;;18.00;99.90;;;;;;5031421;28;20467;-66
2023/06/21 01:16:14;;;;;;;16.10;15.40;;;18.00;99.90;;;;;;5041171;28;20498;-66
2023/06/21 01:18:45;;;;;;;15.70;15.00;;;18.00;99.90;;;;;;5035338;28;20590;-66
2023/06/21 01:21:16;;;;;;;15.83;15.13;;;18.10;99.90;;;;;;5038353;28;20452;-65
2023/06/21 01:23:55;;;;;;;16.37;15.57;;;18.10;99.90;;;;;;5043271;28;20550;-67
2023/06/21 01:26:42;;;;;;;15.77;15.07;;;18.10;99.90;;;;;;5032398;28;20807;-67
2023/06/21 01:29:13;;;;;;;15.87;15.17;;;18.00;99.90;;;;;;5042204;28;20463;-65
2023/06/21 01:31:42;;;;;;;15.77;15.07;;;18.00;99.90;;;;;;5038689;28;20482;-67
2023/06/21 01:34:12;;;;;;;17.03;16.23;;;18.00;99.90;;;;;;5042054;28;20465;-65
2023/06/21 01:36:40;;;;;;;15.90;15.20;;;18.00;99.90;;;;;;5027524;28;20943;-65
2023/06/21 01:39:09;;;;;;;16.13;15.43;;;18.00;99.90;;;;;;5039176;28;20492;-66
2023/06/21 01:41:36;;;;;;;16.10;15.40;;;18.00;99.90;;;;;;5041864;28;20526;-66
2023/06/21 01:44:05;;;;;;;16.00;15.30;;;18.00;99.90;;;;;;5041560;28;20552;-66
2023/06/21 01:46:33;;;;;;;15.80;15.10;;;18.10;99.90;;;;;;5038476;28;20870;-66
2023/06/21 01:49:00;;;;;;;16.20;15.50;;;18.10;99.90;;;;;;5047604;28;20486;-65
2023/06/21 01:51:28;;;;;;;15.93;15.23;;;18.00;99.90;;;;;;5045728;28;20491;-66
2023/06/21 01:53:56;;;;;;;16.10;15.40;;;18.10;99.90;;;;;;5032028;28;20460;-66
2023/06/21 01:56:26;;;;;;;16.33;15.60;;;18.10;99.90;;;;;;5042781;28;20893;-66
2023/06/21 01:58:52;;;;;;;16.50;15.70;;;18.10;99.90;;;;;;5040157;28;20487;-67
2023/06/21 02:01:21;;;;;;;16.20;15.50;;;18.10;99.90;;;;;;5035447;28;20469;-66
2023/06/21 02:03:52;;;;;;;16.10;15.40;;;18.20;99.90;;;;;;5041801;28;20825;-65
2023/06/21 02:06:21;;;;;;;15.90;15.20;;;18.20;99.90;;;;;;5040741;28;20464;-65
2023/06/21 02:09:05;;;;;;;15.80;15.10;;;18.30;99.90;;;;;;5036695;28;20460;-65
2023/06/21 02:11:33;;;;;;;15.60;14.90;;;18.40;99.90;;;;;;5029180;28;20456;-66
2023/06/21 02:14:00;;;;;;;15.67;14.87;;;18.40;99.90;;;;;;5036168;28;20461;-66
2023/06/21 02:16:27;;;;;;;15.43;14.73;;;18.40;99.90;;;;;;5035076;28;20495;-66
2023/06/21 02:18:56;;;;;;;15.53;14.83;;;18.50;99.90;;;;;;5034978;28;20997;-66
2023/06/21 02:21:23;;;;;;;14.97;14.37;;;18.40;99.90;;;;;;5040243;28;20518;-67
2023/06/21 02:23:51;;;;;;;15.80;15.10;;;18.50;99.90;;;;;;5036711;28;20900;-66
2023/06/21 02:26:19;;;;;;;16.00;15.30;;;18.40;99.90;;;;;;5039491;28;20460;-66
2023/06/21 02:28:46;;;;;;;17.60;16.80;;;18.30;99.90;;;;;;5038475;28;20822;-66
2023/06/21 02:31:13;;;;;;;16.97;16.17;;;18.30;99.90;;;;;;5039197;28;20462;-66
2023/06/21 02:33:44;;;;;;;16.60;15.80;;;18.20;99.90;;;;;;5040757;28;20471;-65
2023/06/21 02:36:13;;;;;;;16.80;16.00;;;18.20;99.90;;;;;;5034397;28;20551;-67
2023/06/21 02:38:40;;;;;;;17.27;16.47;;;18.10;99.90;;;;;;5042618;28;20511;-66
2023/06/21 02:41:07;;;;;;;17.10;16.30;;;18.00;99.90;;;;;;5043577;28;20587;-66
2023/06/21 02:43:34;;;;;;;17.30;16.50;;;17.90;99.90;;;;;;5035534;28;20872;-66
2023/06/21 02:46:02;;;;;;;17.10;16.30;;;17.80;99.90;;;;;;5036194;28;20457;-65
2023/06/21 02:48:29;;;;;;;17.20;16.40;;;17.90;99.90;;;;;;5046498;28;20546;-66
2023/06/21 02:50:56;;;;;;;17.30;16.50;;;17.80;99.90;;;;;;5041751;28;20452;-66
2023/06/21 02:53:25;;;;;;;17.40;16.60;;;17.70;99.90;;;;;;5037314;28;20455;-67
2023/06/21 02:55:52;;;;;;;17.37;16.57;;;17.70;99.90;;;;;;5039042;28;20467;-67
2023/06/21 02:58:19;;;;;;;17.90;17.03;;;17.60;99.90;;;;;;5039016;28;20471;-66
2023/06/21 03:00:46;;;;;;;17.50;16.70;;;17.60;99.90;;;;;;5045150;28;20487;-66
2023/06/21 03:03:13;;;;;;;18.00;17.10;;;17.50;99.90;;;;;;5042734;28;20977;-66
2023/06/21 03:05:40;;;;;;;18.17;17.27;;;17.50;99.90;;;;;;5043724;28;20459;-66
2023/06/21 03:08:07;;;;;;;18.00;17.10;;;17.50;99.90;;;;;;5034816;28;20920;-66
2023/06/21 03:10:36;;;;;;;18.00;17.10;;;17.40;99.90;;;;;;5043569;28;20525;-65
2023/06/21 03:13:03;;;;;;;18.30;17.40;;;17.40;99.90;;;;;;5041738;28;20471;-66
2023/06/21 03:15:32;;;;;;;18.30;17.40;;;17.40;99.90;;;;;;5046027;28;20484;-64
2023/06/21 03:17:59;;;;;;;18.53;17.53;;;17.40;99.90;;;;;;5042476;28;20491;-66
2023/06/21 03:20:26;;;;;;;18.10;17.20;;;17.50;99.90;;;;;;5048665;28;21002;-67
2023/06/21 03:22:53;;;;;;;18.13;17.23;;;17.50;99.90;;;;;;5045283;28;21060;-64
2023/06/21 03:25:20;;;;;;;18.33;17.43;;;17.50;99.90;;;;;;5043354;28;20822;-65
2023/06/21 03:27:48;;;;;;;17.80;16.90;;;17.60;99.90;;;;;;5039043;28;20874;-65
2023/06/21 03:30:15;;;;;;;17.17;16.37;;;17.60;99.90;;;;;;5040747;28;20837;-65
2023/06/21 03:32:46;;;;;;;16.90;16.10;;;17.80;99.90;;;;;;5037151;28;20838;-66
2023/06/21 03:35:14;;;;;;;17.00;16.20;;;17.90;99.90;;;;;;5037386;28;20452;-65
2023/06/21 03:37:41;;;;;;;16.70;15.90;;;18.00;99.90;;;;;;5044219;28;20507;-66
2023/06/21 03:40:11;;;;;;;16.40;15.70;;;18.10;99.90;;;;;;5029892;28;20473;-66
2023/06/21 03:42:38;;;;;;;16.37;15.57;;;18.20;99.90;;;;;;5036503;28;20483;-67
2023/06/21 03:45:08;;;;;;;15.30;14.60;;;18.30;99.90;;;;;;5043078;28;20530;-67
2023/06/21 03:47:36;;;;;;;15.43;14.73;;;18.30;99.90;;;;;;5043810;28;20468;-66
2023/06/21 03:50:03;;;;;;;16.43;15.73;;;18.30;99.90;;;;;;5033003;28;20461;-66
2023/06/21 03:52:30;;;;;;;16.00;15.30;;;18.30;99.90;;;;;;5046698;28;20948;-66
2023/06/21 03:54:56;;;;;;;16.30;15.60;;;18.20;99.90;;;;;;5045464;28;20456;-67
2023/06/21 03:57:24;;;;;;;16.80;16.00;;;18.10;99.90;;;;;;5042983;28;20480;-68
2023/06/21 03:59:51;;;;;;;16.60;15.80;;;18.00;99.90;;;;;;5032117;28;21022;-67
2023/06/21 04:02:20;;;;;;;16.60;15.87;;;18.00;99.90;;;;;;5046279;28;20498;-67
2023/06/21 04:04:47;;;;;;;16.40;15.60;;;18.10;99.90;;;;;;5038261;28;20468;-67
2023/06/21 04:07:17;;;;;;;15.60;14.90;;;18.20;99.90;;;;;;5042314;28;20490;-66
2023/06/21 04:09:44;;;;;;;16.00;15.30;;;18.20;99.90;;;;;;5037265;28;20866;-68
2023/06/21 04:12:11;;;;;;;14.70;14.10;;;18.30;99.90;;;;;;5036296;28;20475;-66
2023/06/21 04:14:38;;;;;;;14.93;14.33;;;18.30;99.90;;;;;;5041557;28;20973;-67
2023/06/21 04:17:07;;;;;;;15.70;15.00;;;18.30;99.90;;;;;;5048161;28;20495;-66
2023/06/21 04:19:37;;;;;;;14.50;13.90;;;18.20;99.90;;;;;;5046904;28;20456;-66
2023/06/21 04:22:04;;;;;;;15.00;14.13;;;18.30;99.90;;;;;;5042253;28;20467;-67
2023/06/21 04:24:32;;;;;;;14.90;14.10;;;18.30;99.90;;;;;;5041181;28;20929;-67
2023/06/21 04:26:59;;;;;;;14.07;13.47;;;18.40;99.90;;;;;;5036473;28;20471;-66
2023/06/21 04:29:26;;;;;;;14.53;13.93;;;18.40;99.90;;;;;;5040615;28;20459;-66
2023/06/21 04:31:53;;;;;;;14.23;13.63;;;18.40;99.90;;;;;;5040566;28;20503;-67
2023/06/21 04:34:20;;;;;;;13.67;13.10;;;18.40;99.90;;;;;;5048820;28;20471;-66
2023/06/21 04:36:49;;;;;;;13.10;12.60;;;18.40;99.90;;;;;;5045677;28;20459;-66
2023/06/21 04:39:17;;;;;;;13.07;12.57;;;18.40;99.90;;;;;;5036812;28;20809;-67
2023/06/21 04:41:47;;;;;;;12.67;12.17;;;18.60;99.90;;;;;;5047882;28;20495;-65
2023/06/21 04:44:20;;;;;;;11.97;11.47;;;18.70;99.90;;;;;;5038962;28;20972;-65
2023/06/21 04:46:46;;;;;;;12.20;11.70;;;18.70;99.90;;;;;;5039504;28;20460;-67
2023/06/21 04:49:17;;;;;;;11.00;10.57;;;18.80;99.90;;;;;;5039799;28;20578;-66
2023/06/21 04:51:44;;;;;;;9.50;9.20;;;18.80;99.90;;;;;;5048202;28;20452;-67
2023/06/21 04:54:12;;;;;;;8.73;8.43;;;18.90;99.90;;;;;;5036212;28;20467;-66
2023/06/21 04:56:40;;;;;;;8.00;7.70;;;19.00;99.90;;;;;;5040960;28;20532;-65
2023/06/21 04:59:08;;;;;;;7.30;7.00;;;19.00;99.90;;;;;;5039115;28;20533;-67
2023/06/21 05:01:35;;;;;;;9.97;9.47;;;19.00;99.90;;;;;;5040959;28;20847;-67
2023/06/21 05:04:01;;;;;;;6.80;6.60;;;19.20;99.90;;;;;;5034673;28;21035;-67
2023/06/21 05:06:29;;;;;;;6.77;6.57;;;19.30;99.90;;;;;;5032609;28;20774;-66
2023/06/21 05:08:56;;;;;;;6.70;6.50;;;19.40;99.90;;;;;;5036357;28;20826;-67
2023/06/21 05:11:25;;;;;;;6.30;6.10;;;19.50;99.90;;;;;;5038696;28;20616;-66
2023/06/21 05:13:52;;;;;;;6.10;5.90;;;19.60;99.90;;;;;;5045962;28;20467;-66
2023/06/21 05:16:19;;;;;;;6.47;6.27;;;19.70;99.90;;;;;;5041544;28;20480;-68
2023/06/21 05:18:46;;;;;;;5.70;5.50;;;19.80;99.90;;;;;;5029791;28;20466;-67
2023/06/21 05:21:13;;;;;;;6.07;5.87;;;19.70;99.90;;;;;;5036075;28;20488;-66
2023/06/21 05:23:40;;;;;;;5.40;5.20;;;19.80;99.90;;;;;;5032490;28;20463;-66
2023/06/21 05:26:08;;;;;;;6.03;5.73;;;19.80;99.90;;;;;;5036370;28;20460;-67
2023/06/21 05:28:37;;;;;;;7.97;7.30;;;19.90;99.90;;;;;;5036304;28;20834;-65
2023/06/21 05:31:03;;;;;;;5.53;5.23;;;19.90;99.90;;;;;;5036408;28;20507;-67
2023/06/21 05:33:31;;;;;;;3.67;3.57;;;20.00;99.90;;;;;;5037029;28;20478;-67
2023/06/21 05:35:58;;;;;;;3.90;3.80;;;20.00;99.90;;;;;;5037349;28;20448;-66
2023/06/21 05:38:25;;;;;;;3.63;3.53;;;20.10;99.90;;;;;;5044314;28;20471;-66
2023/06/21 05:40:52;;;;;;;3.60;3.50;;;20.10;99.90;;;;;;5041990;28;20542;-66
2023/06/21 05:43:19;;;;;;;5.87;5.57;;;20.10;99.90;;;;;;5036477;28;21002;-66
2023/06/21 05:45:48;;;;;;;4.77;4.57;;;20.20;99.90;;;;;;5035105;28;20487;-67
2023/06/21 05:48:14;;;;;;;6.23;5.57;;;20.40;99.90;;;;;;5036252;28;20975;-68
2023/06/21 05:50:41;;;;;;;5.50;5.20;;;20.50;99.90;;;;;;5036944;28;20513;-66
2023/06/21 05:53:09;;;;;;;4.50;4.30;;;20.60;99.90;;;;;;5047348;28;20474;-65
2023/06/21 05:55:35;;;;;;;4.73;4.53;;;20.60;99.90;;;;;;5032334;28;20826;-66
2023/06/21 05:58:03;;;;;;;5.53;4.93;;;20.70;99.90;;;;;;5037425;28;20521;-66
2023/06/21 06:00:30;;;;;;;6.70;6.20;;;20.80;99.90;;;;;;5031275;28;20491;-66
2023/06/21 06:02:59;;;;;;;6.47;6.07;;;20.90;99.90;;;;;;5037417;28;21055;-68
2023/06/21 06:05:26;;;;;;;7.37;6.60;;;20.90;99.90;;;;;;5035015;28;20467;-67
2023/06/21 06:07:53;;;;;;;4.43;4.33;;;21.10;99.90;;;;;;5035422;28;20459;-68
2023/06/21 06:10:20;;;;;;;5.30;5.10;;;21.10;99.90;;;;;;5032807;28;20819;-66
2023/06/21 06:12:47;;;;;;;7.20;6.70;;;21.20;99.90;;;;;;5036568;28;20506;-67
2023/06/21 06:15:14;;;;;;;5.80;5.50;;;21.30;99.90;;;;;;5030741;28;20489;-68
2023/06/21 06:17:42;;;;;;;7.47;6.87;;;21.40;99.90;;;;;;5034176;28;20452;-67
2023/06/21 06:20:12;;;;;;;6.83;6.33;;;21.50;99.90;;;;;;5037587;28;20551;-68
2023/06/21 06:22:39;;;;;;;10.13;9.33;;;21.50;99.90;;;;;;5035870;28;20483;-68
2023/06/21 06:25:07;;;;;;;6.67;6.30;;;21.60;99.90;;;;;;5035719;28;20824;-68
2023/06/21 06:27:34;;;;;;;8.30;7.77;;;21.60;99.90;;;;;;5036058;28;21024;-68
2023/06/21 06:30:03;;;;;;;7.37;6.87;;;22.00;99.90;;;;;;5034738;28;20460;-68
2023/06/21 06:32:29;;;;;;;7.00;6.67;;;22.20;99.90;;;;;;5028832;28;20481;-69
2023/06/21 06:34:56;;;;;;;9.33;8.73;;;22.20;99.90;;;;;;5042346;28;20455;-67
2023/06/21 06:37:24;;;;;;;10.27;9.57;;;22.40;99.90;;;;;;5041238;28;20891;-68
2023/06/21 06:39:52;;;;;;;8.57;8.17;;;22.70;99.90;;;;;;5032963;28;20466;-68
2023/06/21 06:42:19;;;;;;;11.43;10.63;;;23.00;99.90;;;;;;5043471;28;20506;-69
2023/06/21 06:44:46;;;;;;;12.27;11.37;;;23.10;99.90;;;;;;5032712;28;20922;-68
2023/06/21 06:47:14;;;;;;;13.87;12.43;;;23.10;99.90;;;;;;5042713;28;20486;-67
2023/06/21 06:49:40;;;;;;;14.77;13.57;;;23.30;99.90;;;;;;5035848;28;20839;-67
2023/06/21 06:52:08;;;;;;;13.00;12.30;;;23.40;99.90;;;;;;5029645;28;20938;-68
2023/06/21 06:54:36;;;;;;;10.50;10.10;;;23.60;99.90;;;;;;5021983;28;20491;-68
2023/06/21 06:57:03;;;;;;;11.27;10.77;;;23.80;99.90;;;;;;5026684;28;20475;-67
2023/06/21 06:59:30;;;;;;;12.60;11.83;;;24.10;99.90;;;;;;5030357;28;20472;-68
2023/06/21 07:01:57;;;;;;;13.40;12.30;;;24.10;99.90;;;;;;5027015;28;20509;-68
2023/06/21 07:04:25;;;;;;;12.60;12.10;;;23.90;99.90;;;;;;5031036;28;20507;-68
2023/06/21 07:06:52;;;;;;;12.63;12.13;;;24.10;99.90;;;;;;5034053;28;20464;-68
2023/06/21 07:09:19;;;;;;;13.27;12.70;;;24.10;99.90;;;;;;5030744;28;20464;-68
2023/06/21 07:11:48;;;;;;;17.93;16.50;;;24.30;99.90;;;;;;5029773;28;21041;-68
2023/06/21 07:14:16;;;;;;;12.60;12.10;;;24.30;99.90;;;;;;5031997;28;21338;-68
2023/06/21 07:16:43;;;;;;;13.70;12.87;;;24.20;99.90;;;;;;5033209;28;20868;-68
2023/06/21 07:19:10;;;;;;;15.83;15.10;;;24.30;99.90;;;;;;5038928;28;20463;-68
2023/06/21 07:21:39;;;;;;;13.30;12.80;;;24.50;99.90;;;;;;5031678;28;21595;-69
2023/06/21 07:24:06;;;;;;;13.87;13.27;;;24.50;99.90;;;;;;5026409;28;20560;-68
2023/06/21 07:26:33;;;;;;;15.67;14.87;;;24.40;99.90;;;;;;5031160;28;20465;-69
2023/06/21 07:29:02;;;;;;;13.37;12.87;;;24.30;99.90;;;;;;5034883;28;20465;-68
2023/06/21 07:31:30;;;;;;;14.43;13.83;;;24.30;99.90;;;;;;5034408;28;20459;-68
2023/06/21 07:33:58;;;;;;;16.50;15.50;;;24.50;99.90;;;;;;5041740;28;20463;-67
2023/06/21 07:36:25;;;;;;;14.73;14.03;;;24.70;99.90;;;;;;5043142;28;20536;-66
2023/06/21 07:38:52;;;;;;;14.53;13.93;;;24.70;99.90;;;;;;5037166;28;20468;-68
2023/06/21 07:41:19;;;;;;;15.90;15.00;;;24.90;99.90;;;;;;5034515;28;20500;-65
2023/06/21 07:43:46;;;;;;;14.37;13.77;;;24.90;99.90;;;;;;5034028;28;20820;-67
2023/06/21 07:46:14;;;;;;;15.30;14.63;;;24.40;99.90;;;;;;5032958;28;20460;-66
2023/06/21 07:48:41;;;;;;;16.07;15.17;;;24.10;99.90;;;;;;5030759;28;20546;-66
2023/06/21 07:51:08;;;;;;;14.63;14.03;;;24.00;99.90;;;;;;5033430;28;20471;-67
2023/06/21 07:53:35;;;;;;;15.70;14.93;;;24.10;99.90;;;;;;5030791;28;20540;-68
2023/06/21 07:56:02;;;;;;;15.80;15.10;;;24.20;99.90;;;;;;5036769;28;20492;-67
2023/06/21 07:58:29;;;;;;;16.03;15.13;;;24.50;99.90;;;;;;5034356;28;20464;-68
2023/06/21 08:00:56;;;;;;;17.67;16.40;;;24.40;99.90;;;;;;5031693;28;20492;-67
2023/06/21 08:03:24;;;;;;;15.83;15.13;;;24.30;99.90;;;;;;5036336;28;20870;-68
2023/06/21 08:05:51;;;;;;;14.50;13.90;;;24.40;99.90;;;;;;5031832;28;20541;-66
2023/06/21 08:08:20;;;;;;;17.23;15.70;;;24.60;99.90;;;;;;5032562;28;20846;-68
2023/06/21 08:10:46;;;;;;;17.50;16.50;;;24.80;99.90;;;;;;5043314;28;20455;-67
2023/06/21 08:13:17;;;;;;;18.43;17.43;;;25.40;99.90;;;;;;5037804;28;20499;-67
2023/06/21 08:15:43;;;;;;;16.77;15.87;;;25.30;99.90;;;;;;5032414;28;21025;-68
2023/06/21 08:18:10;;;;;;;16.60;15.77;;;25.10;99.90;;;;;;5040930;28;20471;-68
2023/06/21 08:20:40;;;;;;;16.83;16.03;;;25.50;99.90;;;;;;5043995;28;20460;-67
2023/06/21 08:23:08;;;;;;;16.83;16.03;;;26.50;99.90;;;;;;5042119;28;20555;-68
2023/06/21 08:25:35;;;;;;;17.40;16.60;;;26.50;99.90;;;;;;5038248;28;20976;-69
2023/06/21 08:28:03;;;;;;;17.07;16.17;;;26.50;99.90;;;;;;5037765;28;20555;-68
2023/06/21 08:30:30;;;;;;;17.00;16.20;;;26.10;99.90;;;;;;5037387;28;20456;-69
2023/06/21 08:32:57;;;;;;;21.20;19.60;;;25.60;99.90;;;;;;5034328;28;20474;-67
2023/06/21 08:35:23;;;;;;;15.60;14.90;;;25.40;99.90;;;;;;5042228;28;20468;-68
2023/06/21 08:37:59;;;;;;;19.27;18.07;;;25.30;99.90;;;;;;5039574;28;20456;-66
2023/06/21 08:40:27;;;;;;;14.77;14.17;;;25.40;99.90;;;;;;5037612;28;20479;-69
2023/06/21 08:42:55;;;;;;;16.20;15.40;;;25.10;99.90;;;;;;5042086;28;20869;-68
2023/06/21 08:45:22;;;;;;;15.97;15.27;;;25.70;99.90;;;;;;5030628;28;21200;-67
2023/06/21 08:47:51;;;;;;;20.27;18.97;;;26.50;99.90;;;;;;5032320;28;20487;-68
2023/06/21 08:50:19;;;;;;;17.43;16.43;;;26.60;99.90;;;;;;5034054;28;20515;-68
2023/06/21 08:52:48;;;;;;;17.47;16.30;;;26.50;99.90;;;;;;5036665;28;20457;-67
2023/06/21 08:55:17;;;;;;;20.03;18.57;;;26.60;99.90;;;;;;5033066;28;20498;-67
2023/06/21 08:57:49;;;;;;;17.73;16.83;;;26.60;99.90;;;;;;5033467;28;20471;-68
2023/06/21 09:00:20;;;;;;;18.30;17.30;;;26.90;99.90;;;;;;5033621;28;20456;-68
2023/06/21 09:02:53;;;;;;;18.10;17.20;;;27.10;99.90;;;;;;5033090;28;20541;-68
2023/06/21 09:05:27;;;;;;;18.00;16.97;;;27.30;99.90;;;;;;5035233;28;20464;-68
2023/06/21 09:07:56;;;;;;;18.53;17.53;;;27.20;99.90;;;;;;5032873;28;20551;-68
2023/06/21 09:10:25;;;;;;;18.57;17.07;;;27.40;99.90;;;;;;5036133;28;20471;-67
2023/06/21 09:12:54;;;;;;;17.90;16.90;;;27.80;99.90;;;;;;5036117;28;20498;-67
2023/06/21 09:15:22;;;;;;;17.80;16.80;;;27.90;99.90;;;;;;5032154;28;20920;-67
2023/06/21 09:17:50;;;;;;;17.23;16.33;;;27.50;99.90;;;;;;5034997;28;21398;-67
2023/06/21 09:20:18;;;;;;;17.50;16.60;;;27.40;99.90;;;;;;5031765;28;20460;-68
2023/06/21 09:22:46;;;;;;;16.33;15.53;;;27.40;99.90;;;;;;5039812;28;20495;-68
2023/06/21 09:25:13;;;;;;;17.90;16.93;;;28.40;99.90;;;;;;5036817;28;20974;-67
2023/06/21 09:27:42;;;;;;;18.30;16.93;;;28.30;99.90;;;;;;5030882;28;20473;-67
2023/06/21 09:30:09;;;;;;;20.23;19.13;;;27.70;99.90;;;;;;5036366;28;20460;-69
2023/06/21 09:32:36;;;;;;;19.63;18.43;;;27.00;99.90;;;;;;5035686;28;20473;-67
2023/06/21 09:35:04;;;;;;;17.80;16.73;;;26.30;99.90;;;;;;5031118;28;20468;-68
2023/06/21 09:37:32;;;;;;;18.37;17.27;;;26.20;99.90;;;;;;5035254;28;20460;-67
2023/06/21 09:39:59;;;;;;;20.23;18.67;;;26.20;99.90;;;;;;5033132;28;20744;-68
2023/06/21 09:42:27;;;;;;;18.90;17.73;;;27.20;99.90;;;;;;5034405;28;20820;-66
2023/06/21 09:44:55;;;;;;;21.33;19.80;;;27.80;99.90;;;;;;5028057;28;20546;-67
2023/06/21 09:47:23;;;;;;;18.93;17.60;;;28.30;99.90;;;;;;5027583;28;20468;-67
2023/06/21 09:49:50;;;;;;;17.10;16.27;;;28.40;99.90;;;;;;5038887;28;20463;-67
2023/06/21 09:52:21;;;;;;;19.53;18.43;;;28.30;99.90;;;;;;5040636;28;20469;-67
2023/06/21 09:54:50;;;;;;;20.40;19.20;;;29.00;99.90;;;;;;5038167;28;20493;-68
2023/06/21 09:57:17;;;;;;;19.50;18.17;;;29.30;99.90;;;;;;5030267;28;20487;-68
2023/06/21 09:59:49;;;;;;;17.87;16.87;;;29.50;99.90;;;;;;5037704;28;20492;-68
2023/06/21 10:02:17;;;;;;;18.90;17.80;;;29.60;99.90;;;;;;5033974;28;20481;-66
2023/06/21 10:04:46;;;;;;;17.40;16.60;;;29.30;99.90;;;;;;5031689;28;20464;-67
2023/06/21 10:07:14;;;;;;;20.13;18.90;;;29.00;99.90;;;;;;5026909;28;20471;-67
2023/06/21 10:09:42;;;;;;;18.50;17.20;;;28.90;99.90;;;;;;5035390;28;20461;-67
2023/06/21 10:12:11;;;;;;;18.37;17.37;;;28.90;99.90;;;;;;5038712;28;20470;-67
2023/06/21 10:14:40;;;;;;;17.67;16.87;;;28.70;99.90;;;;;;5042800;28;20542;-67
2023/06/21 10:17:07;;;;;;;18.43;16.57;;;29.30;99.90;;;;;;5031999;28;20464;-68
2023/06/21 10:19:36;;;;;;;18.47;17.27;;;30.20;99.90;;;;;;5033096;28;20459;-69
2023/06/21 10:22:07;;;;;;;18.13;17.23;;;29.80;99.90;;;;;;5033786;28;21010;-67
2023/06/21 10:24:40;;;;;;;18.43;17.53;;;29.40;99.90;;;;;;5034124;28;20467;-69
2023/06/21 10:27:08;;;;;;;17.57;16.67;;;29.00;99.90;;;;;;5034254;28;20465;-68
2023/06/21 10:29:36;;;;;;;20.27;19.07;;;28.80;99.90;;;;;;5034546;28;20461;-67
2023/06/21 10:32:06;;;;;;;20.80;19.60;;;29.20;99.90;;;;;;5038787;28;20456;-68
2023/06/21 10:34:52;;;;;;;17.73;16.90;;;29.60;99.90;;;;;;5038661;28;20481;-67
2023/06/21 10:37:26;;;;;;;18.80;17.80;;;29.60;99.90;;;;;;5041482;28;20849;-68
2023/06/21 10:39:57;;;;;;;17.07;16.17;;;29.40;99.90;;;;;;5030342;28;21060;-68
2023/06/21 10:42:27;;;;;;;17.17;16.37;;;29.60;99.90;;;;;;5036526;28;20606;-68
2023/06/21 10:44:57;;;;;;;19.27;18.17;;;29.90;99.90;;;;;;5041101;28;20468;-68
2023/06/21 10:47:26;;;;;;;18.40;16.70;;;29.80;99.90;;;;;;5029253;28;20499;-68
2023/06/21 10:49:57;;;;;;;17.57;16.70;;;30.30;99.90;;;;;;5036234;28;20958;-69
2023/06/21 10:52:26;;;;;;;18.03;17.17;;;30.50;99.90;;;;;;5031938;28;20468;-68
2023/06/21 10:54:56;;;;;;;18.77;17.87;;;30.20;99.90;;;;;;5026980;28;20461;-68
2023/06/21 10:57:25;;;;;;;18.70;17.80;;;29.90;99.90;;;;;;5031837;28;20468;-68
2023/06/21 10:59:52;;;;;;;19.10;17.90;;;29.50;99.90;;;;;;5030747;28;20913;-69
2023/06/21 11:02:19;;;;;;;18.10;17.10;;;29.60;99.90;;;;;;5031192;28;20840;-69
2023/06/21 11:05:16;;;;;;;17.97;17.00;;;29.70;99.90;;;;;;5025389;28;20472;-69
2023/06/21 11:08:04;;;;;;;17.80;17.00;;;29.70;99.90;;;;;;5040118;28;20460;-69
2023/06/21 11:10:36;;;;;;;17.30;16.50;;;29.60;99.90;;;;;;5038993;28;20975;-67
2023/06/21 11:13:03;;;;;;;17.80;16.93;;;29.80;99.90;;;;;;5032326;28;20471;-68
2023/06/21 11:15:32;;;;;;;18.03;17.07;;;29.60;99.90;;;;;;5025713;28;20487;-68
2023/06/21 11:18:05;;;;;;;18.10;17.20;;;30.00;99.90;;;;;;5029274;28;20981;-69
2023/06/21 11:20:45;;;;;;;19.20;18.10;;;31.10;99.90;;;;;;5035673;28;20485;-68
2023/06/21 11:23:16;;;;;;;18.50;17.50;;;31.00;99.90;;;;;;5028952;28;20496;-68
2023/06/21 11:25:50;;;;;;;17.50;16.70;;;30.20;99.90;;;;;;5032712;28;20466;-69
2023/06/21 11:28:26;;;;;;;17.40;16.60;;;31.10;99.90;;;;;;5030008;28;20495;-68
2023/06/21 11:31:11;;;;;;;19.97;18.70;;;31.60;99.90;;;;;;5040134;28;20543;-68
2023/06/21 11:33:47;;;;;;;18.57;17.67;;;32.00;99.90;;;;;;5040244;28;20603;-68
2023/06/21 11:36:17;;;;;;;17.47;16.67;;;32.30;99.90;;;;;;5033644;28;20454;-69
2023/06/21 11:38:52;;;;;;;17.73;16.93;;;32.40;99.90;;;;;;5043194;28;20463;-68
2023/06/21 11:42:02;;;;;;;18.63;17.63;;;32.00;99.90;;;;;;5034702;28;20816;-68
2023/06/21 11:44:31;;;;;;;19.17;17.53;;;31.80;99.90;;;;;;4988329;28;20468;-69
2023/06/21 11:47:17;;;;;;;25.70;23.83;;;31.70;99.90;;;;;;5036286;28;20517;-68
2023/06/21 11:49:49;;;;;;;16.70;15.90;;;32.30;99.90;;;;;;5032128;28;20556;-68
2023/06/21 11:52:23;;;;;;;17.30;16.40;;;32.30;99.90;;;;;;5035805;28;20594;-68
2023/06/21 11:54:50;;;;;;;19.27;17.20;;;32.00;99.90;;;;;;5036331;28;21063;-68
2023/06/21 11:57:17;;;;;;;18.13;17.23;;;32.20;99.90;;;;;;5038329;28;21114;-66
2023/06/21 11:59:45;;;;;;;18.33;17.33;;;32.70;99.90;;;;;;5041677;28;20966;-67
2023/06/21 12:02:13;;;;;;;16.60;15.90;;;32.40;99.90;;;;;;5037828;28;20568;-66
2023/06/21 12:04:41;;;;;;;16.90;16.00;;;33.00;99.90;;;;;;5040318;28;20839;-67
2023/06/21 12:07:09;;;;;;;17.50;16.63;;;33.00;99.90;;;;;;5029580;28;20464;-67
2023/06/21 12:09:39;;;;;;;17.20;16.40;;;32.60;99.90;;;;;;5038625;28;20535;-68
2023/06/21 12:12:07;;;;;;;18.30;17.40;;;32.30;99.90;;;;;;5039765;28;20451;-67
2023/06/21 12:14:35;;;;;;;16.33;15.63;;;32.00;99.90;;;;;;5043403;28;20464;-68
2023/06/21 12:17:02;;;;;;;17.23;16.43;;;31.20;99.90;;;;;;5036985;28;20475;-68
2023/06/21 12:19:32;;;;;;;16.60;15.87;;;31.60;99.90;;;;;;5040050;28;20551;-66
2023/06/21 12:22:04;;;;;;;18.13;17.23;;;31.20;99.90;;;;;;5036635;28;20464;-68
2023/06/21 12:24:32;;;;;;;16.33;15.63;;;31.80;99.90;;;;;;5033769;28;20488;-67
2023/06/21 12:27:01;;;;;;;17.40;16.50;;;32.90;99.90;;;;;;5029819;28;20896;-68
2023/06/21 12:29:29;;;;;;;16.90;16.10;;;33.60;99.90;;;;;;5040762;28;20456;-68
2023/06/21 12:31:57;;;;;;;17.10;16.10;;;33.40;99.90;;;;;;5037416;28;20468;-68
2023/06/21 12:34:24;;;;;;;15.80;15.13;;;32.90;99.90;;;;;;5028709;28;20594;-67
2023/06/21 12:36:52;;;;;;;17.00;16.13;;;32.50;99.90;;;;;;5037302;28;20472;-67
2023/06/21 12:39:21;;;;;;;16.80;16.00;;;32.90;99.90;;;;;;5040314;28;20543;-68